sensor_id;sensor_type;location;lat;lon;timestamp;temperature;humidity
12843;DHT22;35724;49.324;-123.118;2023-04-25T00:04:22;26.20;40.70
12843;DHT22;35724;49.324;-123.118;2023-04-25T00:14:30;26.10;40.00
12843;DHT22;35724;49.324;-123.118;2023-04-25T00:24:40;26.10;40.80
12843;DHT22;35724;49.324;-123.118;2023-04-25T00:34:47;26.20;42.30
12843;DHT22;35724;49.324;-123.118;2023-04-25T00:44:58;26.20;42.50
12843;DHT22;35724;49.324;-123.118;2023-04-25T00:55:05;26.30;42.70
12843;DHT22;35724;49.324;-123.118;2023-04-25T01:05:14;26.40;42.10
12843;DHT22;35724;49.324;-123.118;2023-04-25T01:15:23;26.40;41.70
12843;DHT22;35724;49.324;-123.118;2023-04-25T01:25:32;26.50;41.30
12843;DHT22;35724;49.324;-123.118;2023-04-25T01:35:40;26.50;41.10
12843;DHT22;35724;49.324;-123.118;2023-04-25T01:45:50;26.50;41.20
12843;DHT22;35724;49.324;-123.118;2023-04-25T01:55:57;26.60;41.40
12843;DHT22;35724;49.324;-123.118;2023-04-25T02:06:11;26.60;41.20
12843;DHT22;35724;49.324;-123.118;2023-04-25T02:16:21;26.70;41.80
12843;DHT22;35724;49.324;-123.118;2023-04-25T02:26:30;26.70;41.60
12843;DHT22;35724;49.324;-123.118;2023-04-25T02:36:37;26.70;41.50
12843;DHT22;35724;49.324;-123.118;2023-04-25T02:46:47;26.80;42.20
12843;DHT22;35724;49.324;-123.118;2023-04-25T02:56:54;26.80;41.70
12843;DHT22;35724;49.324;-123.118;2023-04-25T03:07:09;26.70;41.40
12843;DHT22;35724;49.324;-123.118;2023-04-25T03:17:16;26.60;40.60
12843;DHT22;35724;49.324;-123.118;2023-04-25T03:27:27;26.50;39.50
12843;DHT22;35724;49.324;-123.118;2023-04-25T03:37:34;26.50;40.70
12843;DHT22;35724;49.324;-123.118;2023-04-25T03:47:48;26.70;40.40
12843;DHT22;35724;49.324;-123.118;2023-04-25T03:58:09;26.70;41.30
12843;DHT22;35724;49.324;-123.118;2023-04-25T04:08:18;26.80;41.20
12843;DHT22;35724;49.324;-123.118;2023-04-25T04:18:26;26.90;41.10
12843;DHT22;35724;49.324;-123.118;2023-04-25T04:40:19;26.90;41.80
12843;DHT22;35724;49.324;-123.118;2023-04-25T05:02:41;27.20;42.50
12843;DHT22;35724;49.324;-123.118;2023-04-25T05:14:14;27.20;42.30
12843;DHT22;35724;49.324;-123.118;2023-04-25T05:24:47;27.30;42.60
12843;DHT22;35724;49.324;-123.118;2023-04-25T05:35:58;27.30;42.30
12843;DHT22;35724;49.324;-123.118;2023-04-25T05:58:06;27.30;40.80
12843;DHT22;35724;49.324;-123.118;2023-04-25T06:08:19;27.30;40.30
12843;DHT22;35724;49.324;-123.118;2023-04-25T06:29:33;27.30;40.20
12843;DHT22;35724;49.324;-123.118;2023-04-25T06:39:43;27.30;40.00
12843;DHT22;35724;49.324;-123.118;2023-04-25T06:49:52;27.30;40.20
12843;DHT22;35724;49.324;-123.118;2023-04-25T07:00:00;27.30;40.30
12843;DHT22;35724;49.324;-123.118;2023-04-25T07:10:12;27.30;40.40
12843;DHT22;35724;49.324;-123.118;2023-04-25T07:20:20;27.30;40.40
12843;DHT22;35724;49.324;-123.118;2023-04-25T07:30:29;27.40;40.40
12843;DHT22;35724;49.324;-123.118;2023-04-25T07:40:39;27.40;40.30
12843;DHT22;35724;49.324;-123.118;2023-04-25T07:50:49;27.40;40.30
12843;DHT22;35724;49.324;-123.118;2023-04-25T08:00:58;27.40;40.30
12843;DHT22;35724;49.324;-123.118;2023-04-25T08:11:13;27.40;40.30
12843;DHT22;35724;49.324;-123.118;2023-04-25T08:21:20;27.40;40.30
12843;DHT22;35724;49.324;-123.118;2023-04-25T08:31:32;27.40;40.30
12843;DHT22;35724;49.324;-123.118;2023-04-25T08:41:41;27.40;40.30
12843;DHT22;35724;49.324;-123.118;2023-04-25T08:51:51;27.40;40.30
12843;DHT22;35724;49.324;-123.118;2023-04-25T09:02:01;27.40;40.20
12843;DHT22;35724;49.324;-123.118;2023-04-25T09:12:10;27.50;40.20
12843;DHT22;35724;49.324;-123.118;2023-04-25T09:22:18;27.50;40.20
12843;DHT22;35724;49.324;-123.118;2023-04-25T09:32:30;27.50;40.10
12843;DHT22;35724;49.324;-123.118;2023-04-25T09:42:42;27.50;40.00
12843;DHT22;35724;49.324;-123.118;2023-04-25T09:53:04;27.50;39.90
12843;DHT22;35724;49.324;-123.118;2023-04-25T10:03:35;27.60;39.90
12843;DHT22;35724;49.324;-123.118;2023-04-25T10:14:13;27.60;39.90
12843;DHT22;35724;49.324;-123.118;2023-04-25T10:24:20;27.60;39.80
12843;DHT22;35724;49.324;-123.118;2023-04-25T10:34:41;27.60;39.80
12843;DHT22;35724;49.324;-123.118;2023-04-25T10:45:02;27.60;39.80
12843;DHT22;35724;49.324;-123.118;2023-04-25T10:55:12;27.60;39.70
12843;DHT22;35724;49.324;-123.118;2023-04-25T11:05:26;27.70;39.80
12843;DHT22;35724;49.324;-123.118;2023-04-25T11:15:43;27.70;39.70
12843;DHT22;35724;49.324;-123.118;2023-04-25T11:25:52;27.70;39.60
12843;DHT22;35724;49.324;-123.118;2023-04-25T11:36:01;27.70;39.60
12843;DHT22;35724;49.324;-123.118;2023-04-25T11:46:09;27.70;39.60
12843;DHT22;35724;49.324;-123.118;2023-04-25T11:56:18;27.80;39.70
12843;DHT22;35724;49.324;-123.118;2023-04-25T12:06:29;27.80;40.20
12843;DHT22;35724;49.324;-123.118;2023-04-25T12:16:45;27.80;39.60
12843;DHT22;35724;49.324;-123.118;2023-04-25T12:26:58;27.80;39.50
12843;DHT22;35724;49.324;-123.118;2023-04-25T12:37:08;27.80;39.50
12843;DHT22;35724;49.324;-123.118;2023-04-25T12:47:15;27.80;40.00
12843;DHT22;35724;49.324;-123.118;2023-04-25T12:57:24;27.90;39.40
12843;DHT22;35724;49.324;-123.118;2023-04-25T13:07:31;27.90;39.40
12843;DHT22;35724;49.324;-123.118;2023-04-25T13:17:40;27.90;39.40
12843;DHT22;35724;49.324;-123.118;2023-04-25T13:27:48;27.90;39.40
12843;DHT22;35724;49.324;-123.118;2023-04-25T13:37:57;27.90;39.30
12843;DHT22;35724;49.324;-123.118;2023-04-25T13:48:04;27.90;39.20
12843;DHT22;35724;49.324;-123.118;2023-04-25T13:58:13;28.00;39.30
12843;DHT22;35724;49.324;-123.118;2023-04-25T14:08:21;28.00;39.10
12843;DHT22;35724;49.324;-123.118;2023-04-25T14:18:29;28.00;39.10
12843;DHT22;35724;49.324;-123.118;2023-04-25T14:28:36;28.00;39.10
12843;DHT22;35724;49.324;-123.118;2023-04-25T14:39:13;28.00;39.10
12843;DHT22;35724;49.324;-123.118;2023-04-25T14:50:08;28.00;38.50
12843;DHT22;35724;49.324;-123.118;2023-04-25T15:01:54;28.00;39.30
12843;DHT22;35724;49.324;-123.118;2023-04-25T15:12:40;27.90;39.50
12843;DHT22;35724;49.324;-123.118;2023-04-25T15:22:56;27.80;39.60
12843;DHT22;35724;49.324;-123.118;2023-04-25T15:33:15;27.80;39.80
12843;DHT22;35724;49.324;-123.118;2023-04-25T15:43:24;27.80;39.70
12843;DHT22;35724;49.324;-123.118;2023-04-25T15:53:36;27.90;39.00
12843;DHT22;35724;49.324;-123.118;2023-04-25T16:03:46;28.00;38.60
12843;DHT22;35724;49.324;-123.118;2023-04-25T16:13:57;28.10;38.50
12843;DHT22;35724;49.324;-123.118;2023-04-25T16:24:09;28.20;38.60
12843;DHT22;35724;49.324;-123.118;2023-04-25T16:34:25;28.10;38.20
12843;DHT22;35724;49.324;-123.118;2023-04-25T16:44:36;27.90;38.30
12843;DHT22;35724;49.324;-123.118;2023-04-25T16:55:19;27.90;39.80
12843;DHT22;35724;49.324;-123.118;2023-04-25T17:05:35;27.80;40.10
12843;DHT22;35724;49.324;-123.118;2023-04-25T17:15:43;27.90;40.60
12843;DHT22;35724;49.324;-123.118;2023-04-25T17:25:52;28.00;40.80
12843;DHT22;35724;49.324;-123.118;2023-04-25T17:35:59;28.00;40.60
12843;DHT22;35724;49.324;-123.118;2023-04-25T17:46:09;28.00;40.60
12843;DHT22;35724;49.324;-123.118;2023-04-25T17:56:16;27.90;40.00
12843;DHT22;35724;49.324;-123.118;2023-04-25T18:06:32;27.80;39.90
12843;DHT22;35724;49.324;-123.118;2023-04-25T18:16:40;27.90;40.00
12843;DHT22;35724;49.324;-123.118;2023-04-25T18:26:59;27.80;39.90
12843;DHT22;35724;49.324;-123.118;2023-04-25T18:37:11;27.80;39.80
12843;DHT22;35724;49.324;-123.118;2023-04-25T18:47:20;27.80;39.80
12843;DHT22;35724;49.324;-123.118;2023-04-25T18:57:28;27.80;39.70
12843;DHT22;35724;49.324;-123.118;2023-04-25T19:07:47;27.70;39.70
12843;DHT22;35724;49.324;-123.118;2023-04-25T19:18:02;27.70;39.00
12843;DHT22;35724;49.324;-123.118;2023-04-25T19:28:11;27.60;38.30
12843;DHT22;35724;49.324;-123.118;2023-04-25T19:38:23;27.50;41.40
12843;DHT22;35724;49.324;-123.118;2023-04-25T20:00:29;27.40;42.10
12843;DHT22;35724;49.324;-123.118;2023-04-25T20:10:36;27.30;41.00
12843;DHT22;35724;49.324;-123.118;2023-04-25T20:20:45;27.00;40.60
12843;DHT22;35724;49.324;-123.118;2023-04-25T20:30:53;26.90;41.40
12843;DHT22;35724;49.324;-123.118;2023-04-25T20:41:05;27.00;42.70
12843;DHT22;35724;49.324;-123.118;2023-04-25T20:51:12;27.20;42.80
12843;DHT22;35724;49.324;-123.118;2023-04-25T21:01:24;27.30;42.60
12843;DHT22;35724;49.324;-123.118;2023-04-25T21:11:32;27.40;42.50
12843;DHT22;35724;49.324;-123.118;2023-04-25T21:21:42;27.50;42.60
12843;DHT22;35724;49.324;-123.118;2023-04-25T21:31:49;27.40;43.10
12843;DHT22;35724;49.324;-123.118;2023-04-25T21:41:58;27.30;42.80
12843;DHT22;35724;49.324;-123.118;2023-04-25T21:52:05;27.20;43.10
12843;DHT22;35724;49.324;-123.118;2023-04-25T22:02:15;27.10;41.60
12843;DHT22;35724;49.324;-123.118;2023-04-25T22:12:23;26.80;41.40
12843;DHT22;35724;49.324;-123.118;2023-04-25T22:22:35;26.70;41.10
12843;DHT22;35724;49.324;-123.118;2023-04-25T22:32:43;26.50;40.90
12843;DHT22;35724;49.324;-123.118;2023-04-25T22:42:52;26.40;40.90
12843;DHT22;35724;49.324;-123.118;2023-04-25T22:52:59;26.30;41.00
12843;DHT22;35724;49.324;-123.118;2023-04-25T23:03:09;26.20;41.00
12843;DHT22;35724;49.324;-123.118;2023-04-25T23:13:17;26.10;41.10
12843;DHT22;35724;49.324;-123.118;2023-04-25T23:23:26;26.00;41.50
12843;DHT22;35724;49.324;-123.118;2023-04-25T23:33:34;25.90;41.10
12843;DHT22;35724;49.324;-123.118;2023-04-25T23:43:43;25.90;41.10
12843;DHT22;35724;49.324;-123.118;2023-04-25T23:53:50;25.90;41.00
